<?xml version="1.0" encoding="UTF-8" standalone="no" ?>
<gpx xmlns="http://www.topografix.com/GPX/1/1" xmlns:xsi="http://www.w3.org/2001/XMLSchema-instance" xsi:schemaLocation="http://www.topografix.com/GPX/1/1 http://www.topografix.com/GPX/1/1/gpx.xsd" version="1.1" creator="VisuGPX - https://www.visugpx.com">
  <metadata>
    <name>Norvège</name>
  </metadata>
  <trk>
    <name><![CDATA[Tour d'Europe: étape 050]]></name>
    <trkseg>
      <trkpt lat="67.07265" lon="14.30906">
        <ele>35.66249</ele>
        <time>2020-08-17T09:06:19.720Z</time>
      </trkpt>
      <trkpt lat="67.0727" lon="14.30412">
        <ele>49.754476</ele>
        <time>2020-08-17T09:11:23.715Z</time>
      </trkpt>
      <trkpt lat="67.07305" lon="14.29858">
        <ele>48.215823</ele>
        <time>2020-08-17T09:12:09.688Z</time>
      </trkpt>
      <trkpt lat="67.07362" lon="14.29338">
        <ele>60.65281</ele>
        <time>2020-08-17T09:13:30.666Z</time>
      </trkpt>
      <trkpt lat="67.07446" lon="14.28898">
        <ele>73.95529</ele>
        <time>2020-08-17T09:15:13.683Z</time>
      </trkpt>
      <trkpt lat="67.07587" lon="14.28535">
        <ele>81.26689</ele>
        <time>2020-08-17T09:17:05.731Z</time>
      </trkpt>
      <trkpt lat="67.07704" lon="14.28689">
        <ele>71.769125</ele>
        <time>2020-08-17T09:17:55.670Z</time>
      </trkpt>
      <trkpt lat="67.07765" lon="14.29492">
        <ele>58.05198</ele>
        <time>2020-08-17T09:18:34.681Z</time>
      </trkpt>
      <trkpt lat="67.0782" lon="14.30049">
        <ele>68.140055</ele>
        <time>2020-08-17T09:19:46.667Z</time>
      </trkpt>
      <trkpt lat="67.07869" lon="14.30588">
        <ele>64.668469</ele>
        <time>2020-08-17T09:20:54.689Z</time>
      </trkpt>
      <trkpt lat="67.07902" lon="14.3119">
        <ele>47.851065</ele>
        <time>2020-08-17T09:21:17.707Z</time>
      </trkpt>
      <trkpt lat="67.07952" lon="14.31743">
        <ele>39.925202</ele>
        <time>2020-08-17T09:21:39.706Z</time>
      </trkpt>
      <trkpt lat="67.08036" lon="14.32402">
        <ele>41.091918</ele>
        <time>2020-08-17T09:22:21.712Z</time>
      </trkpt>
      <trkpt lat="67.08176" lon="14.32812">
        <ele>41.32419</ele>
        <time>2020-08-17T09:23:01.678Z</time>
      </trkpt>
      <trkpt lat="67.08346" lon="14.32544">
        <ele>40.616302</ele>
        <time>2020-08-17T09:23:41.715Z</time>
      </trkpt>
      <trkpt lat="67.08417" lon="14.32006">
        <ele>43.446373</ele>
        <time>2020-08-17T09:24:30.677Z</time>
      </trkpt>
      <trkpt lat="67.08499" lon="14.31508">
        <ele>52.285934</ele>
        <time>2020-08-17T09:25:37.677Z</time>
      </trkpt>
      <trkpt lat="67.08705" lon="14.31357">
        <ele>58.366649</ele>
        <time>2020-08-17T09:26:46.695Z</time>
      </trkpt>
      <trkpt lat="67.08915" lon="14.3133">
        <ele>60.53117</ele>
        <time>2020-08-17T09:27:44.684Z</time>
      </trkpt>
      <trkpt lat="67.09129" lon="14.31294">
        <ele>62.786999</ele>
        <time>2020-08-17T09:28:34.697Z</time>
      </trkpt>
      <trkpt lat="67.09367" lon="14.31078">
        <ele>55.054714</ele>
        <time>2020-08-17T09:29:14.707Z</time>
      </trkpt>
      <trkpt lat="67.09588" lon="14.30937">
        <ele>47.835336</ele>
        <time>2020-08-17T09:30:00.678Z</time>
      </trkpt>
      <trkpt lat="67.09816" lon="14.3092">
        <ele>52.180215</ele>
        <time>2020-08-17T09:31:03.671Z</time>
      </trkpt>
      <trkpt lat="67.10016" lon="14.3091">
        <ele>56.747603</ele>
        <time>2020-08-17T09:32:03.715Z</time>
      </trkpt>
      <trkpt lat="67.10216" lon="14.30922">
        <ele>73.344003</ele>
        <time>2020-08-17T09:33:26.679Z</time>
      </trkpt>
      <trkpt lat="67.1037" lon="14.31194">
        <ele>86.671508</ele>
        <time>2020-08-17T09:35:10.675Z</time>
      </trkpt>
      <trkpt lat="67.10483" lon="14.3165">
        <ele>90.957796</ele>
        <time>2020-08-17T09:36:47.691Z</time>
      </trkpt>
      <trkpt lat="67.10632" lon="14.31943">
        <ele>102.680916</ele>
        <time>2020-08-17T09:38:31.662Z</time>
      </trkpt>
      <trkpt lat="67.10827" lon="14.31889">
        <ele>108.07124</ele>
        <time>2020-08-17T09:40:03.722Z</time>
      </trkpt>
      <trkpt lat="67.11025" lon="14.318">
        <ele>106.605829</ele>
        <time>2020-08-17T09:41:04.703Z</time>
      </trkpt>
      <trkpt lat="67.11262" lon="14.31704">
        <ele>101.397086</ele>
        <time>2020-08-17T09:44:26.673Z</time>
      </trkpt>
      <trkpt lat="67.11485" lon="14.31715">
        <ele>86.995858</ele>
        <time>2020-08-17T09:44:49.692Z</time>
      </trkpt>
      <trkpt lat="67.11703" lon="14.31842">
        <ele>74.279934</ele>
        <time>2020-08-17T09:45:09.719Z</time>
      </trkpt>
      <trkpt lat="67.11954" lon="14.32012">
        <ele>59.541776</ele>
        <time>2020-08-17T09:45:29.699Z</time>
      </trkpt>
      <trkpt lat="67.12151" lon="14.32422">
        <ele>55.606858</ele>
        <time>2020-08-17T09:45:54.711Z</time>
      </trkpt>
      <trkpt lat="67.12273" lon="14.32852">
        <ele>63.158671</ele>
        <time>2020-08-17T09:47:09.696Z</time>
      </trkpt>
      <trkpt lat="67.12391" lon="14.33328">
        <ele>64.880849</ele>
        <time>2020-08-17T09:48:02.720Z</time>
      </trkpt>
      <trkpt lat="67.12387" lon="14.33849">
        <ele>69.808379</ele>
        <time>2020-08-17T09:49:02.706Z</time>
      </trkpt>
      <trkpt lat="67.12488" lon="14.34288">
        <ele>77.537732</ele>
        <time>2020-08-17T09:50:25.706Z</time>
      </trkpt>
      <trkpt lat="67.12558" lon="14.34755">
        <ele>84.695214</ele>
        <time>2020-08-17T09:51:57.718Z</time>
      </trkpt>
      <trkpt lat="67.1264" lon="14.35195">
        <ele>102.718247</ele>
        <time>2020-08-17T09:54:05.712Z</time>
      </trkpt>
      <trkpt lat="67.12802" lon="14.35498">
        <ele>120.077897</ele>
        <time>2020-08-17T09:56:19.709Z</time>
      </trkpt>
      <trkpt lat="67.12965" lon="14.35781">
        <ele>130.657924</ele>
        <time>2020-08-17T09:58:13.717Z</time>
      </trkpt>
      <trkpt lat="67.13097" lon="14.36162">
        <ele>141.061532</ele>
        <time>2020-08-17T10:00:09.721Z</time>
      </trkpt>
      <trkpt lat="67.13226" lon="14.36551">
        <ele>153.520743</ele>
        <time>2020-08-17T10:01:54.698Z</time>
      </trkpt>
      <trkpt lat="67.13391" lon="14.36894">
        <ele>162.398155</ele>
        <time>2020-08-17T10:03:14.700Z</time>
      </trkpt>
      <trkpt lat="67.13554" lon="14.37213">
        <ele>180.011001</ele>
        <time>2020-08-17T10:05:13.715Z</time>
      </trkpt>
      <trkpt lat="67.13708" lon="14.37527">
        <ele>191.602143</ele>
        <time>2020-08-17T10:07:18.697Z</time>
      </trkpt>
      <trkpt lat="67.13884" lon="14.37731">
        <ele>201.99646</ele>
        <time>2020-08-17T10:09:19.754Z</time>
      </trkpt>
      <trkpt lat="67.14036" lon="14.3804">
        <ele>211.759767</ele>
        <time>2020-08-17T10:11:09.701Z</time>
      </trkpt>
      <trkpt lat="67.14179" lon="14.38411">
        <ele>228.249181</ele>
        <time>2020-08-17T10:13:26.693Z</time>
      </trkpt>
      <trkpt lat="67.14339" lon="14.38699">
        <ele>240.86897</ele>
        <time>2020-08-17T10:15:28.699Z</time>
      </trkpt>
      <trkpt lat="67.14468" lon="14.39064">
        <ele>250.699233</ele>
        <time>2020-08-17T10:17:28.719Z</time>
      </trkpt>
      <trkpt lat="67.1458" lon="14.39563">
        <ele>248.966999</ele>
        <time>2020-08-17T10:18:25.698Z</time>
      </trkpt>
      <trkpt lat="67.14716" lon="14.40111">
        <ele>231.582492</ele>
        <time>2020-08-17T10:18:45.727Z</time>
      </trkpt>
      <trkpt lat="67.14939" lon="14.4051">
        <ele>208.304074</ele>
        <time>2020-08-17T10:19:06.693Z</time>
      </trkpt>
      <trkpt lat="67.15171" lon="14.40632">
        <ele>193.05579</ele>
        <time>2020-08-17T10:19:26.692Z</time>
      </trkpt>
      <trkpt lat="67.15419" lon="14.40656">
        <ele>196.273525</ele>
        <time>2020-08-17T10:20:03.721Z</time>
      </trkpt>
      <trkpt lat="67.15591" lon="14.40954">
        <ele>200.15576</ele>
        <time>2020-08-17T10:20:50.685Z</time>
      </trkpt>
      <trkpt lat="67.15773" lon="14.41338">
        <ele>199.656064</ele>
        <time>2020-08-17T10:21:33.724Z</time>
      </trkpt>
      <trkpt lat="67.15968" lon="14.41776">
        <ele>190.629052</ele>
        <time>2020-08-17T10:21:57.710Z</time>
      </trkpt>
      <trkpt lat="67.1616" lon="14.42233">
        <ele>174.950006</ele>
        <time>2020-08-17T10:22:17.750Z</time>
      </trkpt>
      <trkpt lat="67.16271" lon="14.42748">
        <ele>169.223943</ele>
        <time>2020-08-17T10:22:49.716Z</time>
      </trkpt>
      <trkpt lat="67.16257" lon="14.43235">
        <ele>184.855274</ele>
        <time>2020-08-17T10:24:53.712Z</time>
      </trkpt>
      <trkpt lat="67.16406" lon="14.43578">
        <ele>192.295553</ele>
        <time>2020-08-17T10:26:31.705Z</time>
      </trkpt>
      <trkpt lat="67.16526" lon="14.4411">
        <ele>180.279737</ele>
        <time>2020-08-17T10:27:05.693Z</time>
      </trkpt>
      <trkpt lat="67.16594" lon="14.44721">
        <ele>173.216093</ele>
        <time>2020-08-17T10:27:45.706Z</time>
      </trkpt>
      <trkpt lat="67.16819" lon="14.44895">
        <ele>171.731468</ele>
        <time>2020-08-17T10:28:27.749Z</time>
      </trkpt>
      <trkpt lat="67.17055" lon="14.44825">
        <ele>162.299315</ele>
        <time>2020-08-17T10:28:54.742Z</time>
      </trkpt>
      <trkpt lat="67.1727" lon="14.4505">
        <ele>147.792334</ele>
        <time>2020-08-17T10:29:20.714Z</time>
      </trkpt>
      <trkpt lat="67.1746" lon="14.45461">
        <ele>130.975094</ele>
        <time>2020-08-17T10:29:44.694Z</time>
      </trkpt>
      <trkpt lat="67.17655" lon="14.45781">
        <ele>120.819664</ele>
        <time>2020-08-17T10:30:04.690Z</time>
      </trkpt>
      <trkpt lat="67.1787" lon="14.46155">
        <ele>109.583983</ele>
        <time>2020-08-17T10:30:36.691Z</time>
      </trkpt>
      <trkpt lat="67.18021" lon="14.46617">
        <ele>97.476293</ele>
        <time>2020-08-17T10:30:59.749Z</time>
      </trkpt>
      <trkpt lat="67.18028" lon="14.47268">
        <ele>83.503592</ele>
        <time>2020-08-17T10:31:19.718Z</time>
      </trkpt>
      <trkpt lat="67.18089" lon="14.47816">
        <ele>70.49413</ele>
        <time>2020-08-17T10:31:40.704Z</time>
      </trkpt>
      <trkpt lat="67.18161" lon="14.48355">
        <ele>61.754967</ele>
        <time>2020-08-17T10:32:00.698Z</time>
      </trkpt>
      <trkpt lat="67.18212" lon="14.4886">
        <ele>57.060417</ele>
        <time>2020-08-17T10:32:20.687Z</time>
      </trkpt>
      <trkpt lat="67.1831" lon="14.49446">
        <ele>50.703946</ele>
        <time>2020-08-17T10:32:40.692Z</time>
      </trkpt>
      <trkpt lat="67.18267" lon="14.50068">
        <ele>46.879243</ele>
        <time>2020-08-17T10:33:20.699Z</time>
      </trkpt>
      <trkpt lat="67.18238" lon="14.50658">
        <ele>41.016683</ele>
        <time>2020-08-17T10:33:46.689Z</time>
      </trkpt>
      <trkpt lat="67.18139" lon="14.51131">
        <ele>48.060479</ele>
        <time>2020-08-17T10:34:49.704Z</time>
      </trkpt>
      <trkpt lat="67.18113" lon="14.51635">
        <ele>48.359416</ele>
        <time>2020-08-17T10:35:33.691Z</time>
      </trkpt>
      <trkpt lat="67.18137" lon="14.5217">
        <ele>54.72148</ele>
        <time>2020-08-17T10:37:00.711Z</time>
      </trkpt>
      <trkpt lat="67.18098" lon="14.52752">
        <ele>48.992501</ele>
        <time>2020-08-17T10:37:56.699Z</time>
      </trkpt>
      <trkpt lat="67.18117" lon="14.53355">
        <ele>37.023626</ele>
        <time>2020-08-17T10:38:32.720Z</time>
      </trkpt>
      <trkpt lat="67.18035" lon="14.53907">
        <ele>38.325634</ele>
        <time>2020-08-17T10:39:20.688Z</time>
      </trkpt>
      <trkpt lat="67.17949" lon="14.54391">
        <ele>45.380042</ele>
        <time>2020-08-17T10:40:14.700Z</time>
      </trkpt>
      <trkpt lat="67.17877" lon="14.54903">
        <ele>49.904787</ele>
        <time>2020-08-17T10:41:34.706Z</time>
      </trkpt>
      <trkpt lat="67.17871" lon="14.55582">
        <ele>46.285037</ele>
        <time>2020-08-17T10:42:24.697Z</time>
      </trkpt>
      <trkpt lat="67.17826" lon="14.56223">
        <ele>49.188926</ele>
        <time>2020-08-17T10:43:06.694Z</time>
      </trkpt>
      <trkpt lat="67.17794" lon="14.56749">
        <ele>53.347645</ele>
        <time>2020-08-17T10:44:21.699Z</time>
      </trkpt>
      <trkpt lat="67.17803" lon="14.57374">
        <ele>47.422038</ele>
        <time>2020-08-17T10:45:03.713Z</time>
      </trkpt>
      <trkpt lat="67.17956" lon="14.57841">
        <ele>46.712203</ele>
        <time>2020-08-17T10:45:58.729Z</time>
      </trkpt>
      <trkpt lat="67.18085" lon="14.58255">
        <ele>61.55753</ele>
        <time>2020-08-17T10:47:46.703Z</time>
      </trkpt>
      <trkpt lat="67.18077" lon="14.58738">
        <ele>78.567573</ele>
        <time>2020-08-17T10:49:48.699Z</time>
      </trkpt>
      <trkpt lat="67.18018" lon="14.59216">
        <ele>88.095671</ele>
        <time>2020-08-17T10:51:49.714Z</time>
      </trkpt>
      <trkpt lat="67.18029" lon="14.59714">
        <ele>101.032127</ele>
        <time>2020-08-17T10:53:44.736Z</time>
      </trkpt>
      <trkpt lat="67.18171" lon="14.60101">
        <ele>106.851664</ele>
        <time>2020-08-17T10:55:04.726Z</time>
      </trkpt>
      <trkpt lat="67.18408" lon="14.60101">
        <ele>91.022564</ele>
        <time>2020-08-17T10:55:30.718Z</time>
      </trkpt>
      <trkpt lat="67.18615" lon="14.60186">
        <ele>78.382697</ele>
        <time>2020-08-17T10:55:50.709Z</time>
      </trkpt>
      <trkpt lat="67.18849" lon="14.60365">
        <ele>69.843625</ele>
        <time>2020-08-17T10:56:19.730Z</time>
      </trkpt>
      <trkpt lat="67.19119" lon="14.60413">
        <ele>58.453968</ele>
        <time>2020-08-17T10:56:53.731Z</time>
      </trkpt>
      <trkpt lat="67.19353" lon="14.60432">
        <ele>46.214712</ele>
        <time>2020-08-17T10:57:20.712Z</time>
      </trkpt>
      <trkpt lat="67.19551" lon="14.60656">
        <ele>41.743073</ele>
        <time>2020-08-17T10:58:07.714Z</time>
      </trkpt>
      <trkpt lat="67.19638" lon="14.61291">
        <ele>44.661512</ele>
        <time>2020-08-17T10:58:47.728Z</time>
      </trkpt>
      <trkpt lat="67.19686" lon="14.61893">
        <ele>46.077484</ele>
        <time>2020-08-17T10:59:34.740Z</time>
      </trkpt>
      <trkpt lat="67.19662" lon="14.62401">
        <ele>48.027777</ele>
        <time>2020-08-17T11:00:37.727Z</time>
      </trkpt>
      <trkpt lat="67.19705" lon="14.63006">
        <ele>44.590116</ele>
        <time>2020-08-17T11:01:20.706Z</time>
      </trkpt>
      <trkpt lat="67.19896" lon="14.63331">
        <ele>43.971948</ele>
        <time>2020-08-17T11:02:25.708Z</time>
      </trkpt>
      <trkpt lat="67.20114" lon="14.63315">
        <ele>40.447925</ele>
        <time>2020-08-17T11:03:11.716Z</time>
      </trkpt>
      <trkpt lat="67.20246" lon="14.62856">
        <ele>42.466058</ele>
        <time>2020-08-17T11:03:59.729Z</time>
      </trkpt>
      <trkpt lat="67.20374" lon="14.62366">
        <ele>40.735844</ele>
        <time>2020-08-17T11:04:52.699Z</time>
      </trkpt>
      <trkpt lat="67.20483" lon="14.61861">
        <ele>47.665521</ele>
        <time>2020-08-17T11:06:04.697Z</time>
      </trkpt>
      <trkpt lat="67.2059" lon="14.6142">
        <ele>55.434012</ele>
        <time>2020-08-17T11:07:32.700Z</time>
      </trkpt>
      <trkpt lat="67.20622" lon="14.60918">
        <ele>69.828402</ele>
        <time>2020-08-17T11:09:37.736Z</time>
      </trkpt>
      <trkpt lat="67.20781" lon="14.60691">
        <ele>75.6175</ele>
        <time>2020-08-17T11:11:12.716Z</time>
      </trkpt>
      <trkpt lat="67.20952" lon="14.60931">
        <ele>93.081668</ele>
        <time>2020-08-17T11:13:11.699Z</time>
      </trkpt>
      <trkpt lat="67.211" lon="14.61265">
        <ele>101.811642</ele>
        <time>2020-08-17T11:15:22.700Z</time>
      </trkpt>
      <trkpt lat="67.21172" lon="14.61772">
        <ele>104.633977</ele>
        <time>2020-08-17T11:16:51.715Z</time>
      </trkpt>
      <trkpt lat="67.21302" lon="14.62225">
        <ele>108.517275</ele>
        <time>2020-08-17T11:18:06.701Z</time>
      </trkpt>
      <trkpt lat="67.21499" lon="14.62553">
        <ele>97.551954</ele>
        <time>2020-08-17T11:18:40.731Z</time>
      </trkpt>
      <trkpt lat="67.21726" lon="14.62506">
        <ele>79.495288</ele>
        <time>2020-08-17T11:19:00.711Z</time>
      </trkpt>
      <trkpt lat="67.21928" lon="14.62046">
        <ele>56.48479</ele>
        <time>2020-08-17T11:19:21.734Z</time>
      </trkpt>
      <trkpt lat="67.22092" lon="14.61489">
        <ele>39.421725</ele>
        <time>2020-08-17T11:19:41.775Z</time>
      </trkpt>
      <trkpt lat="67.22298" lon="14.61227">
        <ele>43.882675</ele>
        <time>2020-08-17T11:20:26.696Z</time>
      </trkpt>
      <trkpt lat="67.22481" lon="14.6104">
        <ele>61.725502</ele>
        <time>2020-08-17T11:22:19.708Z</time>
      </trkpt>
      <trkpt lat="67.22655" lon="14.60755">
        <ele>68.880292</ele>
        <time>2020-08-17T11:24:09.711Z</time>
      </trkpt>
      <trkpt lat="67.22795" lon="14.60374">
        <ele>63.352321</ele>
        <time>2020-08-17T11:25:04.731Z</time>
      </trkpt>
      <trkpt lat="67.22926" lon="14.60445">
        <ele>66.884305</ele>
        <time>2020-08-17T11:54:15.338Z</time>
      </trkpt>
      <trkpt lat="67.23042" lon="14.60895">
        <ele>69.984383</ele>
        <time>2020-08-17T11:56:11.345Z</time>
      </trkpt>
      <trkpt lat="67.23138" lon="14.61326">
        <ele>78.411134</ele>
        <time>2020-08-17T11:58:00.413Z</time>
      </trkpt>
      <trkpt lat="67.23259" lon="14.61814">
        <ele>73.930563</ele>
        <time>2020-08-17T11:58:50.322Z</time>
      </trkpt>
      <trkpt lat="67.23347" lon="14.62301">
        <ele>61.793855</ele>
        <time>2020-08-17T11:59:43.328Z</time>
      </trkpt>
      <trkpt lat="67.23423" lon="14.62737">
        <ele>62.953995</ele>
        <time>2020-08-17T12:00:55.318Z</time>
      </trkpt>
      <trkpt lat="67.23446" lon="14.63299">
        <ele>67.733192</ele>
        <time>2020-08-17T12:01:55.327Z</time>
      </trkpt>
      <trkpt lat="67.2348" lon="14.6383">
        <ele>72.607464</ele>
        <time>2020-08-17T12:02:58.326Z</time>
      </trkpt>
      <trkpt lat="67.2358" lon="14.64401">
        <ele>71.52382</ele>
        <time>2020-08-17T12:03:47.338Z</time>
      </trkpt>
      <trkpt lat="67.23677" lon="14.65017">
        <ele>67.334528</ele>
        <time>2020-08-17T12:04:24.339Z</time>
      </trkpt>
      <trkpt lat="67.23649" lon="14.65594">
        <ele>61.561239</ele>
        <time>2020-08-17T12:04:44.312Z</time>
      </trkpt>
      <trkpt lat="67.23638" lon="14.66209">
        <ele>57.632897</ele>
        <time>2020-08-17T12:05:24.349Z</time>
      </trkpt>
      <trkpt lat="67.23628" lon="14.66724">
        <ele>61.636302</ele>
        <time>2020-08-17T12:06:18.315Z</time>
      </trkpt>
      <trkpt lat="67.23581" lon="14.67282">
        <ele>62.938215</ele>
        <time>2020-08-17T12:07:09.310Z</time>
      </trkpt>
      <trkpt lat="67.23582" lon="14.67854">
        <ele>63.200529</ele>
        <time>2020-08-17T12:08:00.328Z</time>
      </trkpt>
      <trkpt lat="67.23625" lon="14.68492">
        <ele>58.992192</ele>
        <time>2020-08-17T12:08:40.336Z</time>
      </trkpt>
      <trkpt lat="67.23669" lon="14.69164">
        <ele>53.86962</ele>
        <time>2020-08-17T12:09:20.320Z</time>
      </trkpt>
      <trkpt lat="67.23708" lon="14.69776">
        <ele>53.189721</ele>
        <time>2020-08-17T12:10:00.358Z</time>
      </trkpt>
      <trkpt lat="67.23747" lon="14.70367">
        <ele>51.572097</ele>
        <time>2020-08-17T12:10:42.326Z</time>
      </trkpt>
      <trkpt lat="67.23852" lon="14.70941">
        <ele>45.833585</ele>
        <time>2020-08-17T12:11:15.332Z</time>
      </trkpt>
      <trkpt lat="67.24043" lon="14.71286">
        <ele>37.463536</ele>
        <time>2020-08-17T12:11:41.335Z</time>
      </trkpt>
      <trkpt lat="67.2423" lon="14.71577">
        <ele>37.535263</ele>
        <time>2020-08-17T12:12:30.310Z</time>
      </trkpt>
      <trkpt lat="67.24344" lon="14.72063">
        <ele>39.063468</ele>
        <time>2020-08-17T12:13:18.348Z</time>
      </trkpt>
      <trkpt lat="67.24547" lon="14.7215">
        <ele>40.717292</ele>
        <time>2020-08-17T12:14:14.321Z</time>
      </trkpt>
      <trkpt lat="67.24624" lon="14.71684">
        <ele>44.068287</ele>
        <time>2020-08-17T12:15:23.335Z</time>
      </trkpt>
      <trkpt lat="67.24707" lon="14.71167">
        <ele>46.886442</ele>
        <time>2020-08-17T12:16:17.332Z</time>
      </trkpt>
      <trkpt lat="67.2479" lon="14.70692">
        <ele>48.718943</ele>
        <time>2020-08-17T12:17:20.328Z</time>
      </trkpt>
      <trkpt lat="67.25003" lon="14.70635">
        <ele>52.043777</ele>
        <time>2020-08-17T12:18:37.321Z</time>
      </trkpt>
      <trkpt lat="67.25186" lon="14.70815">
        <ele>67.652202</ele>
        <time>2020-08-17T12:20:37.380Z</time>
      </trkpt>
      <trkpt lat="67.25311" lon="14.71047">
        <ele>81.228895</ele>
        <time>2020-08-17T12:22:47.348Z</time>
      </trkpt>
      <trkpt lat="67.25476" lon="14.71287">
        <ele>85.118671</ele>
        <time>2020-08-17T12:24:17.361Z</time>
      </trkpt>
      <trkpt lat="67.2563" lon="14.71721">
        <ele>82.911013</ele>
        <time>2020-08-17T12:24:57.323Z</time>
      </trkpt>
      <trkpt lat="67.2574" lon="14.72229">
        <ele>83.536848</ele>
        <time>2020-08-17T12:25:43.366Z</time>
      </trkpt>
      <trkpt lat="67.25904" lon="14.72602">
        <ele>79.109555</ele>
        <time>2020-08-17T12:26:03.319Z</time>
      </trkpt>
      <trkpt lat="67.26067" lon="14.72987">
        <ele>69.898369</ele>
        <time>2020-08-17T12:26:32.348Z</time>
      </trkpt>
      <trkpt lat="67.26206" lon="14.73429">
        <ele>61.178723</ele>
        <time>2020-08-17T12:27:01.362Z</time>
      </trkpt>
      <trkpt lat="67.26413" lon="14.73766">
        <ele>56.706525</ele>
        <time>2020-08-17T12:27:39.336Z</time>
      </trkpt>
      <trkpt lat="67.26653" lon="14.73806">
        <ele>59.759935</ele>
        <time>2020-08-17T12:28:33.322Z</time>
      </trkpt>
      <trkpt lat="67.26886" lon="14.73667">
        <ele>61.2089</ele>
        <time>2020-08-17T12:29:30.338Z</time>
      </trkpt>
      <trkpt lat="67.27071" lon="14.7337">
        <ele>59.326669</ele>
        <time>2020-08-17T12:30:24.347Z</time>
      </trkpt>
      <trkpt lat="67.27229" lon="14.72798">
        <ele>48.679493</ele>
        <time>2020-08-17T12:31:04.328Z</time>
      </trkpt>
      <trkpt lat="67.27427" lon="14.72592">
        <ele>43.304091</ele>
        <time>2020-08-17T12:31:39.400Z</time>
      </trkpt>
      <trkpt lat="67.27567" lon="14.73023">
        <ele>47.71099</ele>
        <time>2020-08-17T12:32:35.342Z</time>
      </trkpt>
      <trkpt lat="67.27776" lon="14.72723">
        <ele>42.250814</ele>
        <time>2020-08-17T12:33:12.346Z</time>
      </trkpt>
      <trkpt lat="67.27953" lon="14.72466">
        <ele>48.178114</ele>
        <time>2020-08-17T12:37:05.364Z</time>
      </trkpt>
      <trkpt lat="67.28101" lon="14.72753">
        <ele>56.043471</ele>
        <time>2020-08-17T12:38:39.323Z</time>
      </trkpt>
      <trkpt lat="67.28241" lon="14.73228">
        <ele>53.043391</ele>
        <time>2020-08-17T12:39:29.332Z</time>
      </trkpt>
      <trkpt lat="67.28399" lon="14.73254">
        <ele>46.320412</ele>
        <time>2020-08-17T12:39:53.336Z</time>
      </trkpt>
      <trkpt lat="67.28564" lon="14.73035">
        <ele>49.694547</ele>
        <time>2020-08-17T12:41:10.388Z</time>
      </trkpt>
      <trkpt lat="67.28754" lon="14.72851">
        <ele>57.044663</ele>
        <time>2020-08-17T12:42:42.338Z</time>
      </trkpt>
      <trkpt lat="67.28946" lon="14.72611">
        <ele>50.460084</ele>
        <time>2020-08-17T12:43:26.336Z</time>
      </trkpt>
      <trkpt lat="67.29172" lon="14.72696">
        <ele>48.584132</ele>
        <time>2020-08-17T12:44:24.326Z</time>
      </trkpt>
      <trkpt lat="67.29412" lon="14.72798">
        <ele>46.674227</ele>
        <time>2020-08-17T12:45:15.348Z</time>
      </trkpt>
      <trkpt lat="67.29632" lon="14.72875">
        <ele>43.888516</ele>
        <time>2020-08-17T12:46:05.344Z</time>
      </trkpt>
      <trkpt lat="67.29829" lon="14.73081">
        <ele>48.094867</ele>
        <time>2020-08-17T12:47:05.343Z</time>
      </trkpt>
      <trkpt lat="67.29958" lon="14.73492">
        <ele>55.401344</ele>
        <time>2020-08-17T12:48:20.387Z</time>
      </trkpt>
      <trkpt lat="67.30121" lon="14.73795">
        <ele>52.823788</ele>
        <time>2020-08-17T12:49:32.347Z</time>
      </trkpt>
      <trkpt lat="67.30338" lon="14.73491">
        <ele>42.297205</ele>
        <time>2020-08-17T12:50:02.342Z</time>
      </trkpt>
      <trkpt lat="67.30413" lon="14.72962">
        <ele>42.239415</ele>
        <time>2020-08-17T12:50:56.348Z</time>
      </trkpt>
      <trkpt lat="67.30445" lon="14.72457">
        <ele>51.582445</ele>
        <time>2020-08-17T12:52:40.375Z</time>
      </trkpt>
      <trkpt lat="67.30484" lon="14.71952">
        <ele>57.618088</ele>
        <time>2020-08-17T12:54:18.337Z</time>
      </trkpt>
      <trkpt lat="67.30494" lon="14.71315">
        <ele>48.305603</ele>
        <time>2020-08-17T12:55:04.339Z</time>
      </trkpt>
      <trkpt lat="67.30408" lon="14.70806">
        <ele>39.474526</ele>
        <time>2020-08-17T12:55:27.339Z</time>
      </trkpt>
      <trkpt lat="67.30285" lon="14.70328">
        <ele>42.690794</ele>
        <time>2020-08-17T12:56:18.340Z</time>
      </trkpt>
      <trkpt lat="67.30139" lon="14.69949">
        <ele>45.746505</ele>
        <time>2020-08-17T12:57:20.387Z</time>
      </trkpt>
      <trkpt lat="67.30023" lon="14.69512">
        <ele>47.970508</ele>
        <time>2020-08-17T12:58:32.340Z</time>
      </trkpt>
      <trkpt lat="67.29984" lon="14.68941">
        <ele>45.654049</ele>
        <time>2020-08-17T12:59:23.348Z</time>
      </trkpt>
      <trkpt lat="67.29887" lon="14.68486">
        <ele>52.892706</ele>
        <time>2020-08-17T13:00:39.331Z</time>
      </trkpt>
      <trkpt lat="67.29725" lon="14.68105">
        <ele>52.871637</ele>
        <time>2020-08-17T13:01:39.338Z</time>
      </trkpt>
      <trkpt lat="67.29586" lon="14.67701">
        <ele>51.909273</ele>
        <time>2020-08-17T13:02:32.340Z</time>
      </trkpt>
      <trkpt lat="67.29487" lon="14.67263">
        <ele>48.802544</ele>
        <time>2020-08-17T13:03:14.344Z</time>
      </trkpt>
      <trkpt lat="67.29451" lon="14.6661">
        <ele>40.413477</ele>
        <time>2020-08-17T13:03:56.349Z</time>
      </trkpt>
      <trkpt lat="67.29429" lon="14.6603">
        <ele>42.188739</ele>
        <time>2020-08-17T13:04:46.353Z</time>
      </trkpt>
      <trkpt lat="67.29387" lon="14.65538">
        <ele>48.034704</ele>
        <time>2020-08-17T13:05:58.340Z</time>
      </trkpt>
      <trkpt lat="67.29334" lon="14.65033">
        <ele>52.248768</ele>
        <time>2020-08-17T13:07:40.331Z</time>
      </trkpt>
      <trkpt lat="67.29281" lon="14.64448">
        <ele>47.221548</ele>
        <time>2020-08-17T13:08:22.360Z</time>
      </trkpt>
      <trkpt lat="67.29229" lon="14.6383">
        <ele>40.467359</ele>
        <time>2020-08-17T13:09:02.322Z</time>
      </trkpt>
      <trkpt lat="67.29142" lon="14.63294">
        <ele>37.471783</ele>
        <time>2020-08-17T13:09:42.347Z</time>
      </trkpt>
      <trkpt lat="67.29064" lon="14.62818">
        <ele>43.733274</ele>
        <time>2020-08-17T13:10:57.343Z</time>
      </trkpt>
      <trkpt lat="67.29008" lon="14.62191">
        <ele>37.96654</ele>
        <time>2020-08-17T13:11:42.330Z</time>
      </trkpt>
      <trkpt lat="67.28966" lon="14.61627">
        <ele>30.375898</ele>
        <time>2020-08-17T13:12:24.327Z</time>
      </trkpt>
      <trkpt lat="67.28987" lon="14.61093">
        <ele>35.550725</ele>
        <time>2020-08-17T13:13:22.347Z</time>
      </trkpt>
      <trkpt lat="67.28923" lon="14.60587">
        <ele>45.179806</ele>
        <time>2020-08-17T13:14:36.351Z</time>
      </trkpt>
      <trkpt lat="67.28884" lon="14.60094">
        <ele>55.886344</ele>
        <time>2020-08-17T13:16:30.367Z</time>
      </trkpt>
      <trkpt lat="67.28822" lon="14.5959">
        <ele>55.984739</ele>
        <time>2020-08-17T13:17:37.340Z</time>
      </trkpt>
      <trkpt lat="67.28737" lon="14.5901">
        <ele>58.683259</ele>
        <time>2020-08-17T13:18:38.339Z</time>
      </trkpt>
      <trkpt lat="67.28681" lon="14.58512">
        <ele>62.683094</ele>
        <time>2020-08-17T13:19:50.362Z</time>
      </trkpt>
      <trkpt lat="67.28616" lon="14.57957">
        <ele>61.574751</ele>
        <time>2020-08-17T13:20:52.343Z</time>
      </trkpt>
      <trkpt lat="67.28547" lon="14.57356">
        <ele>57.036546</ele>
        <time>2020-08-17T13:21:34.338Z</time>
      </trkpt>
      <trkpt lat="67.28484" lon="14.56823">
        <ele>56.278201</ele>
        <time>2020-08-17T13:22:21.341Z</time>
      </trkpt>
      <trkpt lat="67.2842" lon="14.56253">
        <ele>57.692576</ele>
        <time>2020-08-17T13:23:15.341Z</time>
      </trkpt>
      <trkpt lat="67.28351" lon="14.55675">
        <ele>60.674973</ele>
        <time>2020-08-17T13:24:11.363Z</time>
      </trkpt>
      <trkpt lat="67.28276" lon="14.55139">
        <ele>64.092765</ele>
        <time>2020-08-17T13:25:18.346Z</time>
      </trkpt>
      <trkpt lat="67.28171" lon="14.54609">
        <ele>63.76713</ele>
        <time>2020-08-17T13:26:20.338Z</time>
      </trkpt>
      <trkpt lat="67.28077" lon="14.54104">
        <ele>58.419767</ele>
        <time>2020-08-17T13:27:09.350Z</time>
      </trkpt>
      <trkpt lat="67.27997" lon="14.53538">
        <ele>54.410102</ele>
        <time>2020-08-17T13:27:54.356Z</time>
      </trkpt>
      <trkpt lat="67.27933" lon="14.52966">
        <ele>49.324019</ele>
        <time>2020-08-17T13:28:34.384Z</time>
      </trkpt>
      <trkpt lat="67.27883" lon="14.52427">
        <ele>51.276822</ele>
        <time>2020-08-17T13:29:16.336Z</time>
      </trkpt>
      <trkpt lat="67.27832" lon="14.51891">
        <ele>55.168119</ele>
        <time>2020-08-17T13:30:15.369Z</time>
      </trkpt>
      <trkpt lat="67.27784" lon="14.51301">
        <ele>53.599229</ele>
        <time>2020-08-17T13:31:19.358Z</time>
      </trkpt>
      <trkpt lat="67.27733" lon="14.50742">
        <ele>53.718853</ele>
        <time>2020-08-17T13:32:19.342Z</time>
      </trkpt>
      <trkpt lat="67.27689" lon="14.50223">
        <ele>57.892712</ele>
        <time>2020-08-17T13:33:33.352Z</time>
      </trkpt>
      <trkpt lat="67.27704" lon="14.49717">
        <ele>65.28837</ele>
        <time>2020-08-17T13:34:53.343Z</time>
      </trkpt>
      <trkpt lat="67.27783" lon="14.49238">
        <ele>70.204278</ele>
        <time>2020-08-17T13:36:12.345Z</time>
      </trkpt>
      <trkpt lat="67.2783" lon="14.48692">
        <ele>66.640498</ele>
        <time>2020-08-17T13:37:14.351Z</time>
      </trkpt>
      <trkpt lat="67.27779" lon="14.48021">
        <ele>53.874318</ele>
        <time>2020-08-17T13:37:54.376Z</time>
      </trkpt>
      <trkpt lat="67.27742" lon="14.4745">
        <ele>50.164619</ele>
        <time>2020-08-17T13:38:34.333Z</time>
      </trkpt>
      <trkpt lat="67.27733" lon="14.46883">
        <ele>48.340183</ele>
        <time>2020-08-17T13:39:14.339Z</time>
      </trkpt>
      <trkpt lat="67.2769" lon="14.46365">
        <ele>52.047355</ele>
        <time>2020-08-17T13:40:04.366Z</time>
      </trkpt>
      <trkpt lat="67.27667" lon="14.45834">
        <ele>57.620481</ele>
        <time>2020-08-17T13:41:14.351Z</time>
      </trkpt>
      <trkpt lat="67.2763" lon="14.45298">
        <ele>53.016601</ele>
        <time>2020-08-17T13:42:00.334Z</time>
      </trkpt>
      <trkpt lat="67.27582" lon="14.44772">
        <ele>45.146962</ele>
        <time>2020-08-17T13:42:40.340Z</time>
      </trkpt>
      <trkpt lat="67.27512" lon="14.44248">
        <ele>45.720004</ele>
        <time>2020-08-17T13:43:20.334Z</time>
      </trkpt>
      <trkpt lat="67.27651" lon="14.43825">
        <ele>45.528976</ele>
        <time>2020-08-17T13:44:00.359Z</time>
      </trkpt>
      <trkpt lat="67.27773" lon="14.43338">
        <ele>47.59791</ele>
        <time>2020-08-17T13:44:49.328Z</time>
      </trkpt>
      <trkpt lat="67.27914" lon="14.42882">
        <ele>47.698368</ele>
        <time>2020-08-17T13:45:41.356Z</time>
      </trkpt>
      <trkpt lat="67.28042" lon="14.4239">
        <ele>49.950175</ele>
        <time>2020-08-17T13:46:41.364Z</time>
      </trkpt>
      <trkpt lat="67.28149" lon="14.41961">
        <ele>50.148738</ele>
        <time>2020-08-17T13:47:28.343Z</time>
      </trkpt>
      <trkpt lat="67.28261" lon="14.41513">
        <ele>50.806874</ele>
        <time>2020-08-17T13:48:26.370Z</time>
      </trkpt>
      <trkpt lat="67.28361" lon="14.4174">
        <ele>53.08514</ele>
        <time>2020-08-17T13:49:27.346Z</time>
      </trkpt>
      <trkpt lat="67.28448" lon="14.41707">
        <ele>56.303772</ele>
        <time>2020-08-17T13:53:19.348Z</time>
      </trkpt>
    </trkseg>
  </trk>
</gpx>